createdAt,value
2019-05-10T00:00:04.402Z,0.00
2019-05-10T00:01:04.382Z,0.00
2019-05-10T00:02:04.363Z,0.00
2019-05-10T00:03:04.337Z,0.00
2019-05-10T00:04:04.310Z,0.00
2019-05-10T00:05:04.292Z,0.00
2019-05-10T00:06:04.271Z,0.00
2019-05-10T00:07:04.252Z,0.00
2019-05-10T00:08:04.230Z,0.00
2019-05-10T00:09:04.211Z,0.00
2019-05-10T00:10:04.186Z,0.00
2019-05-10T00:11:04.164Z,0.00
2019-05-10T00:12:04.144Z,0.00
2019-05-10T00:13:04.123Z,0.00
2019-05-10T00:14:04.102Z,0.00
2019-05-10T00:15:04.081Z,0.00
2019-05-10T00:16:04.062Z,0.00
2019-05-10T00:17:04.040Z,0.00
2019-05-10T00:18:04.019Z,0.00
2019-05-10T00:19:03.998Z,0.00
2019-05-10T00:20:03.975Z,0.00
2019-05-10T00:21:03.964Z,0.00
2019-05-10T00:22:03.939Z,0.00
2019-05-10T00:23:03.916Z,0.00
2019-05-10T00:24:03.899Z,0.00
2019-05-10T00:25:05.160Z,0.00
2019-05-10T00:26:03.858Z,0.00
2019-05-10T00:27:03.837Z,0.00
2019-05-10T00:28:03.813Z,0.00
2019-05-10T00:29:03.790Z,0.00
2019-05-10T00:30:03.772Z,0.00
2019-05-10T00:31:03.749Z,0.00
2019-05-10T00:32:03.732Z,0.00
2019-05-10T00:33:03.740Z,0.00
2019-05-10T00:34:03.698Z,0.00
2019-05-10T00:35:03.672Z,0.00
2019-05-10T00:36:03.649Z,0.00
2019-05-10T00:37:03.634Z,0.00
2019-05-10T00:38:03.613Z,0.00
2019-05-10T00:39:03.580Z,0.00
2019-05-10T00:40:03.566Z,0.00
2019-05-10T00:41:03.548Z,0.00
2019-05-10T00:42:03.521Z,0.00
2019-05-10T00:43:03.498Z,0.00
2019-05-10T00:44:03.490Z,0.00
2019-05-10T00:45:03.490Z,0.00
2019-05-10T00:46:03.436Z,0.00
2019-05-10T00:47:03.416Z,0.00
2019-05-10T00:48:03.396Z,0.00
2019-05-10T00:49:03.374Z,0.00
2019-05-10T00:50:03.353Z,0.00
2019-05-10T00:51:03.396Z,0.00
2019-05-10T00:52:03.310Z,0.00
2019-05-10T00:53:03.291Z,0.00
2019-05-10T00:54:03.270Z,0.00
2019-05-10T00:55:17.722Z,0.00
2019-05-10T00:56:03.224Z,0.00
2019-05-10T00:57:03.206Z,0.00
2019-05-10T00:58:03.186Z,0.00
2019-05-10T00:59:03.166Z,0.00
2019-05-10T01:00:03.145Z,0.00
2019-05-10T01:01:03.123Z,0.00
2019-05-10T01:02:03.100Z,0.00
2019-05-10T01:03:03.080Z,0.00
2019-05-10T01:04:03.057Z,0.00
2019-05-10T01:05:03.037Z,0.00
2019-05-10T01:06:03.038Z,0.00
2019-05-10T01:07:02.994Z,0.00
2019-05-10T01:08:02.979Z,0.00
2019-05-10T01:09:02.962Z,0.00
2019-05-10T01:10:02.935Z,0.00
2019-05-10T01:11:02.912Z,0.00
2019-05-10T01:12:02.890Z,0.00
2019-05-10T01:13:02.868Z,0.00
2019-05-10T01:14:02.851Z,0.00
2019-05-10T01:15:02.829Z,0.00
2019-05-10T01:16:02.813Z,0.00
2019-05-10T01:17:02.785Z,0.00
2019-05-10T01:18:02.764Z,0.00
2019-05-10T01:19:02.742Z,0.00
2019-05-10T01:20:02.723Z,0.00
2019-05-10T01:21:02.702Z,0.00
2019-05-10T01:22:02.693Z,0.00
2019-05-10T01:23:02.663Z,0.00
2019-05-10T01:24:02.647Z,0.00
2019-05-10T01:25:02.621Z,0.00
2019-05-10T01:26:02.599Z,0.00
2019-05-10T01:27:02.576Z,0.00
2019-05-10T01:28:02.568Z,0.00
2019-05-10T01:29:02.534Z,0.00
2019-05-10T01:30:02.514Z,0.00
2019-05-10T01:31:02.491Z,0.00
2019-05-10T01:32:02.482Z,0.00
2019-05-10T01:33:02.451Z,0.00
2019-05-10T01:34:02.439Z,0.00
2019-05-10T01:35:02.406Z,0.00
2019-05-10T01:36:02.386Z,0.00
2019-05-10T01:37:02.370Z,0.00
2019-05-10T01:38:02.344Z,0.00
2019-05-10T01:39:02.326Z,0.00
2019-05-10T01:40:02.314Z,0.00
2019-05-10T01:41:02.355Z,0.00
2019-05-10T01:42:02.262Z,0.00
2019-05-10T01:43:02.239Z,0.00
2019-05-10T01:44:02.239Z,0.00
2019-05-10T01:45:02.200Z,0.00
2019-05-10T01:46:02.188Z,0.00
2019-05-10T01:47:02.157Z,0.00
2019-05-10T01:48:02.135Z,0.00
2019-05-10T01:49:02.124Z,0.00
2019-05-10T01:50:02.092Z,0.00
2019-05-10T01:51:02.216Z,0.00
2019-05-10T01:52:02.049Z,0.00
2019-05-10T01:53:02.029Z,0.00
2019-05-10T01:54:02.007Z,0.00
2019-05-10T01:55:02.076Z,0.00
2019-05-10T01:56:01.971Z,0.00
2019-05-10T01:57:01.944Z,0.00
2019-05-10T01:58:01.924Z,0.00
2019-05-10T01:59:01.900Z,0.00
2019-05-10T02:00:01.880Z,0.00
2019-05-10T02:01:01.862Z,0.00
2019-05-10T02:02:01.842Z,0.00
2019-05-10T02:03:01.815Z,0.00
2019-05-10T02:04:01.796Z,0.00
2019-05-10T02:05:01.780Z,0.00
2019-05-10T02:06:01.764Z,0.00
2019-05-10T02:07:01.731Z,0.00
2019-05-10T02:08:01.710Z,0.00
2019-05-10T02:09:01.689Z,0.00
2019-05-10T02:10:01.696Z,0.00
2019-05-10T02:11:01.654Z,0.00
2019-05-10T02:12:01.625Z,0.00
2019-05-10T02:13:01.607Z,0.00
2019-05-10T02:14:01.584Z,0.00
2019-05-10T02:15:01.566Z,0.00
2019-05-10T02:16:01.542Z,0.00
2019-05-10T02:17:01.522Z,0.00
2019-05-10T02:18:01.503Z,0.00
2019-05-10T02:19:01.478Z,0.00
2019-05-10T02:20:01.481Z,0.00
2019-05-10T02:21:01.438Z,0.00
2019-05-10T02:22:01.427Z,0.00
2019-05-10T02:23:01.394Z,0.00
2019-05-10T02:24:01.374Z,0.00
2019-05-10T02:25:01.354Z,0.00
2019-05-10T02:26:09.446Z,0.00
2019-05-10T02:27:01.310Z,0.00
2019-05-10T02:28:01.292Z,0.00
2019-05-10T02:29:01.307Z,0.00
2019-05-10T02:30:01.279Z,0.00
2019-05-10T02:31:01.225Z,0.00
2019-05-10T02:32:01.203Z,0.00
2019-05-10T02:33:01.183Z,0.00
2019-05-10T02:34:01.161Z,0.00
2019-05-10T02:35:01.153Z,0.00
2019-05-10T02:36:01.121Z,0.00
2019-05-10T02:37:01.101Z,0.00
2019-05-10T02:38:01.092Z,0.00
2019-05-10T02:39:01.054Z,0.00
2019-05-10T02:40:01.044Z,0.00
2019-05-10T02:41:01.009Z,0.00
2019-05-10T02:42:01.001Z,0.00
2019-05-10T02:43:00.967Z,0.00
2019-05-10T02:44:00.945Z,0.00
2019-05-10T02:45:00.925Z,0.00
2019-05-10T02:46:00.903Z,0.00
2019-05-10T02:47:00.883Z,0.00
2019-05-10T02:48:00.867Z,0.00
2019-05-10T02:49:00.852Z,0.00
2019-05-10T02:50:00.818Z,0.00
2019-05-10T02:51:00.803Z,0.00
2019-05-10T02:52:00.776Z,0.00
2019-05-10T02:53:00.763Z,0.00
2019-05-10T02:54:00.744Z,0.00
2019-05-10T02:55:00.709Z,0.00
2019-05-10T02:56:00.691Z,0.00
2019-05-10T02:57:00.667Z,0.00
2019-05-10T02:58:00.649Z,0.00
2019-05-10T02:59:00.623Z,0.00
2019-05-10T03:00:00.604Z,0.00
2019-05-10T03:01:00.587Z,0.00
2019-05-10T03:02:00.581Z,0.00
2019-05-10T03:03:00.540Z,0.00
2019-05-10T03:04:00.524Z,0.00
2019-05-10T03:05:00.496Z,0.00
2019-05-10T03:06:00.474Z,0.00
2019-05-10T03:07:00.452Z,0.00
2019-05-10T03:08:00.431Z,0.00
2019-05-10T03:09:00.408Z,0.00
2019-05-10T03:10:00.388Z,0.00
2019-05-10T03:11:00.373Z,0.00
2019-05-10T03:12:00.346Z,0.00
2019-05-10T03:13:00.329Z,0.00
2019-05-10T03:14:00.308Z,0.00
2019-05-10T03:15:00.278Z,0.00
2019-05-10T03:16:00.259Z,0.00
2019-05-10T03:17:00.238Z,0.00
2019-05-10T03:18:00.220Z,0.00
2019-05-10T03:19:00.192Z,0.00
2019-05-10T03:20:00.186Z,0.00
2019-05-10T03:21:00.153Z,0.00
2019-05-10T03:22:00.131Z,0.00
2019-05-10T03:23:00.111Z,0.00
2019-05-10T03:24:00.092Z,0.00
2019-05-10T03:25:00.069Z,0.00
2019-05-10T03:26:00.047Z,0.00
2019-05-10T03:27:00.024Z,0.00
2019-05-10T03:28:00.002Z,0.00
2019-05-10T03:28:59.983Z,0.00
2019-05-10T03:29:59.959Z,0.00
2019-05-10T03:30:59.940Z,0.00
2019-05-10T03:31:59.916Z,4.00
2019-05-10T03:32:59.896Z,0.00
2019-05-10T03:33:59.882Z,4.00
2019-05-10T03:34:59.856Z,0.00
2019-05-10T03:35:59.829Z,4.00
2019-05-10T03:36:59.807Z,4.00
2019-05-10T03:37:59.786Z,4.00
2019-05-10T03:38:59.768Z,0.00
2019-05-10T03:39:59.755Z,4.00
2019-05-10T03:40:59.721Z,4.00
2019-05-10T03:41:59.701Z,0.00
2019-05-10T03:42:59.681Z,0.00
2019-05-10T03:43:59.656Z,4.00
2019-05-10T03:44:59.636Z,4.00
2019-05-10T03:45:59.616Z,4.00
2019-05-10T03:46:59.591Z,4.00
2019-05-10T03:47:59.570Z,4.00
2019-05-10T03:48:59.552Z,4.00
2019-05-10T03:49:59.540Z,4.00
2019-05-10T03:50:59.505Z,4.00
2019-05-10T03:51:59.494Z,0.00
2019-05-10T03:52:59.470Z,0.00
2019-05-10T03:53:59.519Z,0.00
2019-05-10T03:54:59.423Z,4.00
2019-05-10T03:55:59.401Z,4.00
2019-05-10T03:57:12.091Z,8.00
2019-05-10T03:57:59.357Z,4.00
2019-05-10T03:58:59.333Z,4.00
2019-05-10T03:59:59.325Z,4.00
2019-05-10T04:00:59.294Z,8.00
2019-05-10T04:01:59.273Z,8.00
2019-05-10T04:02:59.267Z,4.00
2019-05-10T04:03:59.231Z,8.00
2019-05-10T04:04:59.208Z,8.00
2019-05-10T04:05:59.183Z,4.00
2019-05-10T04:06:59.162Z,8.00
2019-05-10T04:07:59.142Z,4.00
2019-05-10T04:08:59.119Z,4.00
2019-05-10T04:09:59.104Z,4.00
2019-05-10T04:10:59.077Z,4.00
2019-05-10T04:11:59.054Z,8.00
2019-05-10T04:12:59.035Z,8.00
2019-05-10T04:13:59.049Z,12.00
2019-05-10T04:14:58.995Z,16.00
2019-05-10T04:15:58.971Z,16.00
2019-05-10T04:16:58.954Z,12.00
2019-05-10T04:17:58.928Z,12.00
2019-05-10T04:18:58.902Z,12.00
2019-05-10T04:19:58.895Z,12.00
2019-05-10T04:20:58.863Z,16.00
2019-05-10T04:21:58.853Z,16.00
2019-05-10T04:22:58.820Z,12.00
2019-05-10T04:23:58.795Z,8.00
2019-05-10T04:24:58.775Z,8.00
2019-05-10T04:25:58.754Z,12.00
2019-05-10T04:26:58.731Z,16.00
2019-05-10T04:27:58.709Z,16.00
2019-05-10T04:28:58.695Z,20.00
2019-05-10T04:29:58.728Z,16.00
2019-05-10T04:30:58.644Z,16.00
2019-05-10T04:31:58.632Z,16.00
2019-05-10T04:32:58.600Z,12.00
2019-05-10T04:33:58.582Z,12.00
2019-05-10T04:34:58.558Z,12.00
2019-05-10T04:35:58.538Z,16.00
2019-05-10T04:36:58.522Z,12.00
2019-05-10T04:37:58.491Z,12.00
2019-05-10T04:38:58.470Z,16.00
2019-05-10T04:39:58.467Z,16.00
2019-05-10T04:40:58.425Z,16.00
2019-05-10T04:41:58.406Z,20.00
2019-05-10T04:42:58.382Z,24.00
2019-05-10T04:43:58.361Z,20.00
2019-05-10T04:44:58.339Z,20.00
2019-05-10T04:45:58.318Z,24.00
2019-05-10T04:46:58.295Z,24.00
2019-05-10T04:47:58.286Z,28.00
2019-05-10T04:48:58.254Z,28.00
2019-05-10T04:49:58.230Z,32.00
2019-05-10T04:50:58.222Z,36.00
2019-05-10T04:51:58.185Z,44.00
2019-05-10T04:52:58.165Z,48.00
2019-05-10T04:53:58.147Z,44.00
2019-05-10T04:54:58.122Z,44.00
2019-05-10T04:55:58.102Z,40.00
2019-05-10T04:57:00.205Z,36.00
2019-05-10T04:57:58.058Z,32.00
2019-05-10T04:58:58.045Z,20.00
2019-05-10T04:59:58.010Z,20.00
2019-05-10T05:00:57.990Z,20.00
2019-05-10T05:01:57.971Z,24.00
2019-05-10T05:02:57.946Z,28.00
2019-05-10T05:03:57.939Z,32.00
2019-05-10T05:04:58.008Z,32.00
2019-05-10T05:05:57.886Z,36.00
2019-05-10T05:06:57.871Z,48.00
2019-05-10T05:07:57.838Z,64.00
2019-05-10T05:08:57.820Z,72.00
2019-05-10T05:09:57.811Z,60.00
2019-05-10T05:10:57.775Z,48.00
2019-05-10T05:11:57.752Z,60.00
2019-05-10T05:12:57.733Z,72.00
2019-05-10T05:13:57.708Z,80.00
2019-05-10T05:14:57.696Z,76.00
2019-05-10T05:15:57.678Z,88.00
2019-05-10T05:16:57.670Z,112.00
2019-05-10T05:17:57.622Z,108.00
2019-05-10T05:18:57.608Z,112.00
2019-05-10T05:19:57.577Z,120.00
2019-05-10T05:20:57.560Z,120.00
2019-05-10T05:21:57.538Z,108.00
2019-05-10T05:22:57.513Z,108.00
2019-05-10T05:23:57.501Z,112.00
2019-05-10T05:25:01.249Z,100.00
2019-05-10T05:25:57.453Z,104.00
2019-05-10T05:26:57.429Z,120.00
2019-05-10T05:28:07.399Z,116.00
2019-05-10T05:28:57.390Z,96.00
2019-05-10T05:29:57.363Z,92.00
2019-05-10T05:30:57.341Z,96.00
2019-05-10T05:32:01.184Z,120.00
2019-05-10T05:32:57.299Z,132.00
2019-05-10T05:33:59.209Z,140.00
2019-05-10T05:34:57.251Z,132.00
2019-05-10T05:35:57.230Z,116.00
2019-05-10T05:36:57.209Z,112.00
2019-05-10T05:37:57.191Z,108.00
2019-05-10T05:38:57.168Z,96.00
2019-05-10T05:39:57.147Z,92.00
2019-05-10T05:40:57.123Z,100.00
2019-05-10T05:41:57.146Z,108.00
2019-05-10T05:42:57.077Z,120.00
2019-05-10T05:43:57.072Z,144.00
2019-05-10T05:44:57.037Z,184.00
2019-05-10T05:45:57.014Z,232.00
2019-05-10T05:46:56.996Z,264.00
2019-05-10T05:47:56.977Z,268.00
2019-05-10T05:48:56.947Z,236.00
2019-05-10T05:49:56.928Z,204.00
2019-05-10T05:50:56.913Z,160.00
2019-05-10T05:51:56.882Z,136.00
2019-05-10T05:52:56.861Z,124.00
2019-05-10T05:53:56.869Z,132.00
2019-05-10T05:54:57.488Z,124.00
2019-05-10T05:55:56.795Z,112.00
2019-05-10T05:56:56.781Z,104.00
2019-05-10T05:57:59.263Z,104.00
2019-05-10T05:58:56.730Z,108.00
2019-05-10T05:59:57.717Z,108.00
2019-05-10T06:00:56.693Z,108.00
2019-05-10T06:02:00.558Z,112.00
2019-05-10T06:02:56.644Z,112.00
2019-05-10T06:04:00.212Z,124.00
2019-05-10T06:04:56.674Z,132.00
2019-05-10T06:05:56.581Z,136.00
2019-05-10T06:06:59.024Z,132.00
2019-05-10T06:07:56.553Z,128.00
2019-05-10T06:08:59.552Z,128.00
2019-05-10T06:09:56.494Z,136.00
2019-05-10T06:10:59.666Z,144.00
2019-05-10T06:11:56.452Z,152.00
2019-05-10T06:12:56.444Z,164.00
2019-05-10T06:13:56.417Z,180.00
2019-05-10T06:14:56.390Z,200.00
2019-05-10T06:15:59.888Z,212.00
2019-05-10T06:16:56.343Z,220.00
2019-05-10T06:17:57.573Z,228.00
2019-05-10T06:18:56.299Z,228.00
2019-05-10T06:20:00.847Z,228.00
2019-05-10T06:20:56.257Z,224.00
2019-05-10T06:21:57.953Z,216.00
2019-05-10T06:23:06.596Z,204.00
2019-05-10T06:23:59.226Z,188.00
2019-05-10T06:24:56.168Z,168.00
2019-05-10T06:25:56.154Z,160.00
2019-05-10T06:26:58.363Z,156.00
2019-05-10T06:27:56.106Z,152.00
2019-05-10T06:28:59.480Z,148.00
2019-05-10T06:29:56.064Z,140.00
2019-05-10T06:30:56.041Z,128.00
2019-05-10T06:31:58.791Z,124.00
2019-05-10T06:33:00.721Z,112.00
2019-05-10T06:33:55.980Z,104.00
2019-05-10T06:34:55.954Z,96.00
2019-05-10T06:35:55.934Z,92.00
2019-05-10T06:36:55.912Z,92.00
2019-05-10T06:37:55.894Z,88.00
2019-05-10T06:38:55.869Z,80.00
2019-05-10T06:39:55.848Z,84.00
2019-05-10T06:40:55.826Z,96.00
2019-05-10T06:41:58.266Z,92.00
2019-05-10T06:42:55.783Z,104.00
2019-05-10T06:43:55.767Z,140.00
2019-05-10T06:44:55.746Z,128.00
2019-05-10T06:45:55.826Z,116.00
2019-05-10T06:46:55.697Z,124.00
2019-05-10T06:47:55.676Z,136.00
2019-05-10T06:48:55.655Z,136.00
2019-05-10T06:49:55.633Z,156.00
2019-05-10T06:50:55.613Z,200.00
2019-05-10T06:51:55.594Z,240.00
2019-05-10T06:53:00.763Z,292.00
2019-05-10T06:53:55.548Z,316.00
2019-05-10T06:54:58.560Z,344.00
2019-05-10T06:55:55.504Z,380.00
2019-05-10T06:56:55.485Z,360.00
2019-05-10T06:57:59.159Z,328.00
2019-05-10T06:58:55.440Z,344.00
2019-05-10T06:59:57.072Z,364.00
2019-05-10T07:00:55.400Z,380.00
2019-05-10T07:01:55.381Z,408.00
2019-05-10T07:02:55.354Z,460.00
2019-05-10T07:03:55.340Z,500.00
2019-05-10T07:04:55.326Z,484.00
2019-05-10T07:05:55.293Z,468.00
2019-05-10T07:06:55.267Z,452.00
2019-05-10T07:08:00.614Z,472.00
2019-05-10T07:08:57.925Z,512.00
2019-05-10T07:10:12.614Z,576.00
2019-05-10T07:10:55.185Z,588.00
2019-05-10T07:11:55.162Z,540.00
2019-05-10T07:12:57.275Z,464.00
2019-05-10T07:13:55.121Z,400.00
2019-05-10T07:14:57.837Z,356.00
2019-05-10T07:15:55.076Z,332.00
2019-05-10T07:16:56.560Z,316.00
2019-05-10T07:17:55.033Z,316.00
2019-05-10T07:19:00.350Z,336.00
2019-05-10T07:19:55.442Z,348.00
2019-05-10T07:20:54.971Z,360.00
2019-05-10T07:21:54.946Z,396.00
2019-05-10T07:22:59.911Z,436.00
2019-05-10T07:23:54.919Z,480.00
2019-05-10T07:24:57.170Z,528.00
2019-05-10T07:25:54.867Z,592.00
2019-05-10T07:26:56.619Z,684.00
2019-05-10T07:27:54.820Z,1312.00
2019-05-10T07:28:57.560Z,1324.00
2019-05-10T07:29:54.777Z,684.00
2019-05-10T07:30:54.756Z,652.00
2019-05-10T07:31:54.733Z,660.00
2019-05-10T07:32:59.784Z,668.00
2019-05-10T07:33:54.693Z,900.00
2019-05-10T07:34:58.873Z,836.00
2019-05-10T07:35:54.648Z,864.00
2019-05-10T07:36:54.625Z,824.00
2019-05-10T07:37:54.617Z,820.00
2019-05-10T07:38:54.583Z,852.00
2019-05-10T07:39:54.575Z,848.00
2019-05-10T07:40:54.543Z,840.00
2019-05-10T07:41:54.519Z,812.00
2019-05-10T07:42:54.497Z,812.00
2019-05-10T07:44:00.410Z,784.00
2019-05-10T07:44:54.455Z,784.00
2019-05-10T07:45:58.795Z,780.00
2019-05-10T07:46:58.434Z,824.00
2019-05-10T07:47:54.391Z,736.00
2019-05-10T07:48:54.370Z,724.00
2019-05-10T07:49:54.357Z,684.00
2019-05-10T07:50:54.328Z,628.00
2019-05-10T07:51:54.307Z,604.00
2019-05-10T07:52:54.286Z,592.00
2019-05-10T07:53:56.946Z,584.00
2019-05-10T07:54:54.245Z,568.00
2019-05-10T07:55:54.222Z,560.00
2019-05-10T07:56:54.199Z,552.00
2019-05-10T07:57:59.044Z,556.00
2019-05-10T07:58:54.157Z,580.00
2019-05-10T07:59:57.544Z,612.00
2019-05-10T08:00:56.053Z,628.00
2019-05-10T08:01:54.106Z,620.00
2019-05-10T08:03:02.373Z,636.00
2019-05-10T08:03:54.052Z,668.00
2019-05-10T08:04:54.030Z,652.00
2019-05-10T08:05:57.031Z,616.00
2019-05-10T08:06:53.988Z,580.00
2019-05-10T08:07:53.967Z,540.00
2019-05-10T08:08:55.320Z,524.00
2019-05-10T08:09:53.929Z,532.00
2019-05-10T08:10:53.906Z,548.00
2019-05-10T08:11:59.549Z,540.00
2019-05-10T08:12:53.861Z,508.00
2019-05-10T08:13:57.863Z,480.00
2019-05-10T08:14:53.826Z,452.00
2019-05-10T08:15:53.797Z,424.00
2019-05-10T08:16:58.461Z,388.00
2019-05-10T08:17:53.755Z,360.00
2019-05-10T08:18:55.627Z,348.00
2019-05-10T08:19:53.713Z,356.00
2019-05-10T08:20:59.467Z,352.00
2019-05-10T08:22:00.510Z,344.00
2019-05-10T08:22:53.651Z,340.00
2019-05-10T08:23:54.125Z,336.00
2019-05-10T08:24:56.303Z,340.00
2019-05-10T08:25:53.673Z,340.00
2019-05-10T08:26:55.580Z,328.00
2019-05-10T08:27:55.449Z,308.00
2019-05-10T08:28:53.532Z,288.00
2019-05-10T08:30:18.067Z,268.00
2019-05-10T08:30:58.822Z,264.00
2019-05-10T08:31:55.898Z,272.00
2019-05-10T08:32:53.440Z,272.00
2019-05-10T08:33:58.500Z,252.00
2019-05-10T08:34:55.906Z,236.00
2019-05-10T08:36:00.646Z,236.00
2019-05-10T08:36:53.356Z,236.00
2019-05-10T08:37:53.338Z,236.00
2019-05-10T08:39:05.095Z,232.00
2019-05-10T08:39:56.045Z,232.00
2019-05-10T08:40:53.270Z,228.00
2019-05-10T08:42:03.885Z,224.00
2019-05-10T08:43:00.200Z,220.00
2019-05-10T08:43:53.204Z,224.00
2019-05-10T08:45:03.363Z,232.00
2019-05-10T08:45:53.163Z,244.00
2019-05-10T08:46:53.145Z,256.00
2019-05-10T08:48:00.760Z,280.00
2019-05-10T08:48:53.897Z,308.00
2019-05-10T08:50:10.644Z,348.00
2019-05-10T08:50:57.092Z,376.00
2019-05-10T08:51:53.035Z,388.00
2019-05-10T08:52:56.676Z,396.00
2019-05-10T08:53:58.023Z,408.00
2019-05-10T08:54:55.349Z,428.00
2019-05-10T08:55:52.951Z,460.00
2019-05-10T08:57:00.845Z,500.00
2019-05-10T08:57:52.907Z,544.00
2019-05-10T08:58:53.625Z,584.00
2019-05-10T08:59:54.165Z,620.00
2019-05-10T09:01:10.077Z,648.00
2019-05-10T09:01:53.829Z,680.00
2019-05-10T09:02:52.799Z,724.00
2019-05-10T09:03:59.932Z,768.00
2019-05-10T09:04:53.019Z,800.00
2019-05-10T09:05:52.759Z,840.00
2019-05-10T09:06:59.488Z,876.00
2019-05-10T09:07:52.697Z,908.00
2019-05-10T09:09:01.402Z,940.00
2019-05-10T09:09:53.210Z,968.00
2019-05-10T09:10:53.093Z,980.00
2019-05-10T09:11:57.892Z,996.00
2019-05-10T09:12:57.930Z,1004.00
2019-05-10T09:13:53.435Z,996.00
2019-05-10T09:14:57.407Z,980.00
2019-05-10T09:15:56.843Z,964.00
2019-05-10T09:17:00.655Z,968.00
2019-05-10T09:17:52.792Z,976.00
2019-05-10T09:18:53.441Z,984.00
2019-05-10T09:19:52.448Z,992.00
2019-05-10T09:20:54.261Z,1016.00
2019-05-10T09:21:54.985Z,1000.00
2019-05-10T09:22:52.945Z,960.00
2019-05-10T09:24:01.134Z,916.00
2019-05-10T09:24:53.093Z,880.00
2019-05-10T09:25:52.319Z,856.00
2019-05-10T09:26:56.854Z,840.00
2019-05-10T09:27:53.085Z,824.00
2019-05-10T09:28:53.448Z,820.00
2019-05-10T09:29:53.042Z,824.00
2019-05-10T09:31:00.308Z,828.00
2019-05-10T09:31:53.453Z,848.00
2019-05-10T09:32:52.172Z,884.00
2019-05-10T09:33:54.302Z,944.00
2019-05-10T09:34:54.307Z,1012.00
2019-05-10T09:35:54.955Z,1096.00
2019-05-10T09:36:52.995Z,1132.00
2019-05-10T09:37:54.064Z,1204.00
2019-05-10T09:38:52.689Z,1196.00
2019-05-10T09:39:55.424Z,1164.00
2019-05-10T09:40:56.128Z,1124.00
2019-05-10T09:41:52.790Z,1088.00
2019-05-10T09:42:52.366Z,1016.00
2019-05-10T09:43:53.792Z,956.00
2019-05-10T09:44:52.660Z,912.00
2019-05-10T09:45:53.053Z,860.00
2019-05-10T09:46:52.557Z,824.00
2019-05-10T09:47:53.007Z,840.00
2019-05-10T09:48:54.540Z,904.00
2019-05-10T09:49:58.692Z,968.00
2019-05-10T09:50:55.020Z,996.00
2019-05-10T09:51:52.517Z,924.00
2019-05-10T09:52:51.751Z,848.00
2019-05-10T09:53:51.746Z,828.00
2019-05-10T09:54:51.714Z,828.00
2019-05-10T09:56:00.135Z,856.00
2019-05-10T09:56:52.394Z,892.00
2019-05-10T09:57:51.648Z,904.00
2019-05-10T09:58:51.647Z,896.00
2019-05-10T09:59:51.609Z,864.00
2019-05-10T10:00:51.589Z,792.00
2019-05-10T10:01:51.565Z,732.00
2019-05-10T10:02:56.569Z,716.00
2019-05-10T10:03:51.523Z,696.00
2019-05-10T10:04:51.502Z,652.00
2019-05-10T10:05:55.306Z,604.00
2019-05-10T10:06:52.916Z,580.00
2019-05-10T10:07:51.441Z,548.00
2019-05-10T10:08:53.249Z,508.00
2019-05-10T10:09:51.397Z,476.00
2019-05-10T10:10:51.374Z,460.00
2019-05-10T10:11:57.986Z,448.00
2019-05-10T10:12:51.335Z,444.00
2019-05-10T10:13:59.162Z,420.00
2019-05-10T10:14:51.294Z,372.00
2019-05-10T10:15:52.443Z,320.00
2019-05-10T10:16:58.529Z,292.00
2019-05-10T10:17:51.232Z,308.00
2019-05-10T10:18:51.211Z,344.00
2019-05-10T10:19:51.191Z,364.00
2019-05-10T10:20:51.175Z,380.00
2019-05-10T10:21:51.150Z,400.00
2019-05-10T10:22:54.431Z,412.00
2019-05-10T10:23:51.111Z,400.00
2019-05-10T10:24:54.756Z,364.00
2019-05-10T10:25:51.069Z,316.00
2019-05-10T10:26:53.884Z,292.00
2019-05-10T10:27:51.036Z,292.00
2019-05-10T10:28:54.966Z,316.00
2019-05-10T10:29:50.990Z,348.00
2019-05-10T10:30:58.935Z,364.00
2019-05-10T10:31:55.472Z,348.00
2019-05-10T10:32:50.931Z,312.00
2019-05-10T10:33:57.991Z,288.00
2019-05-10T10:34:54.560Z,284.00
2019-05-10T10:35:50.856Z,276.00
2019-05-10T10:36:50.833Z,256.00
2019-05-10T10:37:50.820Z,224.00
2019-05-10T10:38:50.797Z,200.00
2019-05-10T10:39:54.568Z,192.00
2019-05-10T10:40:50.750Z,184.00
2019-05-10T10:41:52.229Z,184.00
2019-05-10T10:42:50.711Z,188.00
2019-05-10T10:43:50.689Z,200.00
2019-05-10T10:44:50.671Z,224.00
2019-05-10T10:45:50.646Z,240.00
2019-05-10T10:46:50.630Z,248.00
2019-05-10T10:47:50.604Z,236.00
2019-05-10T10:48:51.438Z,224.00
2019-05-10T10:49:50.563Z,212.00
2019-05-10T10:50:55.542Z,212.00
2019-05-10T10:51:50.530Z,216.00
2019-05-10T10:52:50.498Z,212.00
2019-05-10T10:53:50.492Z,216.00
2019-05-10T10:54:50.482Z,220.00
2019-05-10T10:55:54.297Z,224.00
2019-05-10T10:56:50.418Z,228.00
2019-05-10T10:57:50.397Z,236.00
2019-05-10T10:58:50.373Z,232.00
2019-05-10T10:59:50.356Z,236.00
2019-05-10T11:00:50.332Z,232.00
2019-05-10T11:02:04.705Z,236.00
2019-05-10T11:02:51.880Z,232.00
2019-05-10T11:03:50.267Z,232.00
2019-05-10T11:04:50.247Z,244.00
2019-05-10T11:05:50.244Z,288.00
2019-05-10T11:06:50.215Z,376.00
2019-05-10T11:07:51.169Z,480.00
2019-05-10T11:08:51.862Z,596.00
2019-05-10T11:09:53.871Z,704.00
2019-05-10T11:10:50.686Z,820.00
2019-05-10T11:11:51.611Z,984.00
2019-05-10T11:12:51.247Z,1256.00
2019-05-10T11:13:57.938Z,1068.00
2019-05-10T11:14:50.041Z,1040.00
2019-05-10T11:15:51.631Z,1040.00
2019-05-10T11:16:55.482Z,1064.00
2019-05-10T11:17:50.633Z,1100.00
2019-05-10T11:18:51.916Z,1144.00
2019-05-10T11:19:49.936Z,1160.00
2019-05-10T11:20:53.905Z,1188.00
2019-05-10T11:21:51.396Z,1216.00
2019-05-10T11:22:53.334Z,1284.00
2019-05-10T11:23:49.853Z,1292.00
2019-05-10T11:24:53.426Z,1396.00
2019-05-10T11:25:55.097Z,1480.00
2019-05-10T11:26:51.649Z,1448.00
2019-05-10T11:27:54.069Z,1460.00
2019-05-10T11:28:51.395Z,1404.00
2019-05-10T11:29:52.834Z,1288.00
2019-05-10T11:30:51.169Z,1464.00
2019-05-10T11:32:10.230Z,1328.00
2019-05-10T11:32:49.673Z,1136.00
2019-05-10T11:33:53.784Z,1096.00
2019-05-10T11:34:49.639Z,984.00
2019-05-10T11:35:51.403Z,956.00
2019-05-10T11:36:51.171Z,940.00
2019-05-10T11:37:50.882Z,948.00
2019-05-10T11:38:56.502Z,944.00
2019-05-10T11:39:50.457Z,940.00
2019-05-10T11:40:49.511Z,896.00
2019-05-10T11:41:52.846Z,924.00
2019-05-10T11:42:51.054Z,912.00
2019-05-10T11:43:49.447Z,868.00
2019-05-10T11:44:53.174Z,880.00
2019-05-10T11:45:51.445Z,896.00
2019-05-10T11:46:50.780Z,916.00
2019-05-10T11:47:54.310Z,1560.00
2019-05-10T11:48:51.046Z,860.00
2019-05-10T11:49:50.922Z,856.00
2019-05-10T11:50:51.392Z,964.00
2019-05-10T11:51:54.854Z,1416.00
2019-05-10T11:52:51.294Z,1148.00
2019-05-10T11:53:55.358Z,1076.00
2019-05-10T11:54:51.417Z,980.00
2019-05-10T11:55:51.518Z,912.00
2019-05-10T11:56:51.960Z,868.00
2019-05-10T11:57:56.673Z,872.00
2019-05-10T11:58:55.026Z,928.00
2019-05-10T11:59:51.488Z,968.00
2019-05-10T12:00:55.891Z,1116.00
2019-05-10T12:01:55.027Z,1128.00
2019-05-10T12:03:03.404Z,1016.00
2019-05-10T12:03:49.035Z,1028.00
2019-05-10T12:04:52.432Z,1044.00
2019-05-10T12:05:56.592Z,1248.00
2019-05-10T12:06:50.181Z,1096.00
2019-05-10T12:07:54.143Z,1108.00
2019-05-10T12:08:53.155Z,1180.00
2019-05-10T12:10:56.693Z,1148.00
2019-05-10T12:11:53.078Z,1208.00
2019-05-10T12:13:04.953Z,1236.00
2019-05-10T12:13:52.852Z,1248.00
2019-05-10T12:14:48.817Z,1324.00
2019-05-10T12:15:51.773Z,1296.00
2019-05-10T12:16:48.787Z,1212.00
2019-05-10T12:17:57.779Z,1176.00
2019-05-10T12:19:05.491Z,1052.00
2019-05-10T12:19:55.906Z,1016.00
2019-05-10T12:20:58.608Z,1024.00
2019-05-10T12:21:48.675Z,992.00
2019-05-10T12:22:51.709Z,1016.00
2019-05-10T12:25:06.094Z,1164.00
2019-05-10T12:26:05.675Z,1096.00
2019-05-10T12:26:30.550Z,1380.00
2019-05-10T12:26:50.524Z,1132.00
2019-05-10T12:27:13.142Z,1312.00
2019-05-10T12:27:49.905Z,1460.00
2019-05-10T12:28:50.892Z,1640.00
2019-05-10T12:29:55.506Z,1204.00
2019-05-10T12:30:50.890Z,1136.00
2019-05-10T12:31:53.343Z,1068.00
2019-05-10T12:32:57.307Z,1024.00
2019-05-10T12:33:50.620Z,1008.00
2019-05-10T12:34:51.969Z,1120.00
2019-05-10T12:35:50.826Z,1096.00
2019-05-10T12:36:48.375Z,1036.00
2019-05-10T12:37:51.395Z,1000.00
2019-05-10T12:38:48.330Z,976.00
2019-05-10T12:39:48.303Z,964.00
2019-05-10T12:40:48.295Z,892.00
2019-05-10T12:41:49.974Z,816.00
2019-05-10T12:42:48.243Z,796.00
2019-05-10T12:43:48.643Z,844.00